YUL weather

Montreal / Pierre Elliott Trudeau International Airport
Montréal, Quebec, Canada

Public forecast

Using degrees Celsius for public forecast. Weather courtesy of forecast.io.

Current aviation weather report (METAR) for Montreal / Pierre Elliott Trudeau International Airport

Retrieved 2020/01/23 10:00 UTC (38 minutes ago):

CYUL 231000Z 20005KT 15SM SCT080 BKN240 M02/M08 A3028 RMK AC3CI2 SLP257

Aviation forecast (TAF) for Montreal / Pierre Elliott Trudeau International Airport

Retrieved 2020/01/23 09:42 UTC (56 minutes ago):

TAF CYUL 230838Z 2309/2406 21010KT P6SM FEW070 BKN220 FM231100 23010KT P6SM SCT030 BKN180 FM231800 23010KT P6SM BKN160 BECMG 2322/2324 VRB03KT FM240500 08005KT P6SM FEW030 BKN100 RMK NXT FCST BY 231200Z